RYR72EU LEMH-LFBO
Flight info
| Callsign | RYR72EU |
|---|---|
| Flight time | 1h 1m |
| Altitude | 34000 |
| Route | MJV DCT ADX DCT DRAGO DCT PAPOS DCT UMURE DCT XIKEN DCT KARES DCT ARBEK DCT REBUL DCT USKAR DCT MOPAS N863 GIROM A29 ASPET |
| Aircraft | B38M/M-SDE1FGHILORVWXY/HB1 |
Departure
| Time | 2026-04-30 18:56 |
|---|---|
| Airport | Menorca Airport (LEMH) |
Arrival
| Time | 2026-04-30 19:57 |
|---|---|
| Airport | Toulouse-Blagnac Airport (LFBO) |
| Time | Latitude | Longitude | Altitude | Speed | Heading |
|---|---|---|---|---|---|
| 2026-04-30 18:40 | 39.86469 | 4.22398 | 261 ft | 0 kts | 99° |
| 2026-04-30 18:45 | 39.86469 | 4.22397 | 289 ft | 1 kts | 99° |
| 2026-04-30 18:45 | 39.86473 | 4.22365 | 293 ft | 4 kts | 99° |
| 2026-04-30 18:46 | 39.86474 | 4.22336 | 293 ft | 4 kts | 72° |
| 2026-04-30 18:46 | 39.86459 | 4.22316 | 293 ft | 4 kts | 15° |
| 2026-04-30 18:46 | 39.86443 | 4.22312 | 292 ft | 1 kts | 9° |
| 2026-04-30 18:46 | 39.86441 | 4.22311 | 292 ft | 0 kts | 9° |
| 2026-04-30 18:50 | 39.86442 | 4.22311 | 292 ft | 1 kts | 9° |
| 2026-04-30 18:50 | 39.86459 | 4.22315 | 293 ft | 4 kts | 9° |
| 2026-04-30 18:51 | 39.86500 | 4.22322 | 291 ft | 8 kts | 2° |
| 2026-04-30 18:51 | 39.86535 | 4.22272 | 294 ft | 9 kts | 281° |
| 2026-04-30 18:51 | 39.86552 | 4.22198 | 298 ft | 8 kts | 306° |
| 2026-04-30 18:51 | 39.86604 | 4.22174 | 297 ft | 9 kts | 7° |
| 2026-04-30 18:52 | 39.86677 | 4.22189 | 298 ft | 12 kts | 9° |
| 2026-04-30 18:52 | 39.86770 | 4.22208 | 300 ft | 15 kts | 9° |
| 2026-04-30 18:52 | 39.86881 | 4.22232 | 303 ft | 18 kts | 9° |
| 2026-04-30 18:52 | 39.87011 | 4.22255 | 304 ft | 20 kts | 7° |
| 2026-04-30 18:53 | 39.87145 | 4.22283 | 308 ft | 18 kts | 11° |
| 2026-04-30 18:53 | 39.87268 | 4.22331 | 312 ft | 20 kts | 22° |
| 2026-04-30 18:53 | 39.87337 | 4.22353 | 314 ft | 7 kts | 358° |
| 2026-04-30 18:53 | 39.87383 | 4.22350 | 317 ft | 6 kts | 357° |
| 2026-04-30 18:54 | 39.87426 | 4.22335 | 318 ft | 7 kts | 331° |
| 2026-04-30 18:54 | 39.87453 | 4.22271 | 318 ft | 10 kts | 261° |
| 2026-04-30 18:54 | 39.87408 | 4.22163 | 314 ft | 17 kts | 229° |
| 2026-04-30 18:54 | 39.87349 | 4.22090 | 313 ft | 6 kts | 193° |
| 2026-04-30 18:55 | 39.87267 | 4.22077 | 311 ft | 21 kts | 185° |
| 2026-04-30 18:55 | 39.86358 | 4.21884 | 305 ft | 137 kts | 190° |
| 2026-04-30 18:55 | 39.85223 | 4.21705 | 477 ft | 179 kts | 181° |
| 2026-04-30 18:56 | 39.82872 | 4.22433 | 2109 ft | 178 kts | 128° |
| 2026-04-30 18:56 | 39.82364 | 4.23967 | 2699 ft | 198 kts | 95° |
| 2026-04-30 18:56 | 39.82077 | 4.25803 | 3368 ft | 222 kts | 117° |
| 2026-04-30 18:57 | 39.79203 | 4.27444 | 4974 ft | 260 kts | 191° |
| 2026-04-30 18:57 | 39.77636 | 4.26294 | 5954 ft | 267 kts | 228° |
| 2026-04-30 18:57 | 39.76811 | 4.24171 | 7111 ft | 267 kts | 257° |
| 2026-04-30 18:58 | 39.75506 | 4.19619 | 9210 ft | 274 kts | 242° |
| 2026-04-30 18:58 | 39.74569 | 4.17444 | 10195 ft | 279 kts | 240° |
| 2026-04-30 18:58 | 39.73518 | 4.15244 | 10823 ft | 296 kts | 238° |
| 2026-04-30 18:59 | 39.71014 | 4.10548 | 11745 ft | 334 kts | 235° |
| 2026-04-30 19:00 | 39.66775 | 4.02961 | 13945 ft | 353 kts | 235° |
| 2026-04-30 19:00 | 39.65324 | 4.00365 | 14656 ft | 357 kts | 235° |
| 2026-04-30 19:00 | 39.62380 | 3.95101 | 16052 ft | 364 kts | 235° |
| 2026-04-30 19:01 | 39.59375 | 3.89732 | 17366 ft | 372 kts | 236° |
| 2026-04-30 19:01 | 39.58364 | 3.87928 | 17801 ft | 374 kts | 236° |
| 2026-04-30 19:02 | 39.55275 | 3.82423 | 19001 ft | 381 kts | 236° |
| 2026-04-30 19:02 | 39.52136 | 3.76835 | 20107 ft | 387 kts | 236° |
| 2026-04-30 19:03 | 39.48950 | 3.71168 | 21217 ft | 392 kts | 235° |
| 2026-04-30 19:03 | 39.45716 | 3.65428 | 22325 ft | 397 kts | 235° |
| 2026-04-30 19:04 | 39.42435 | 3.59610 | 23416 ft | 403 kts | 235° |
| 2026-04-30 19:04 | 39.39100 | 3.53709 | 24380 ft | 409 kts | 235° |
| 2026-04-30 19:05 | 39.35738 | 3.47743 | 25320 ft | 413 kts | 238° |
| 2026-04-30 19:05 | 39.34032 | 3.40758 | 26196 ft | 416 kts | 269° |
| 2026-04-30 19:06 | 39.34804 | 3.33288 | 27030 ft | 423 kts | 278° |
| 2026-04-30 19:06 | 39.35337 | 3.29539 | 27460 ft | 426 kts | 279° |
| 2026-04-30 19:06 | 39.36471 | 3.21986 | 28290 ft | 431 kts | 279° |
| 2026-04-30 19:07 | 39.37647 | 3.14347 | 29087 ft | 436 kts | 279° |
| 2026-04-30 19:07 | 39.38240 | 3.10494 | 29484 ft | 438 kts | 279° |
| 2026-04-30 19:08 | 39.39434 | 3.02718 | 30233 ft | 444 kts | 279° |
| 2026-04-30 19:08 | 39.40628 | 2.94902 | 31098 ft | 442 kts | 279° |
| 2026-04-30 19:08 | 39.41222 | 2.91005 | 31563 ft | 440 kts | 279° |
| 2026-04-30 19:09 | 39.42396 | 2.83265 | 32478 ft | 437 kts | 278° |
| 2026-04-30 19:09 | 39.42981 | 2.79404 | 32947 ft | 436 kts | 278° |
| 2026-04-30 19:09 | 39.43626 | 2.75629 | 33381 ft | 437 kts | 285° |
| 2026-04-30 19:10 | 39.45910 | 2.68330 | 34062 ft | 438 kts | 289° |
| 2026-04-30 19:10 | 39.48196 | 2.61055 | 34080 ft | 435 kts | 289° |
| 2026-04-30 19:11 | 39.51617 | 2.50191 | 34054 ft | 435 kts | 289° |
| 2026-04-30 19:12 | 39.53894 | 2.42941 | 34068 ft | 435 kts | 289° |
| 2026-04-30 19:12 | 39.55318 | 2.39469 | 34048 ft | 440 kts | 303° |
| 2026-04-30 19:12 | 39.57357 | 2.36480 | 34074 ft | 445 kts | 308° |
| 2026-04-30 19:13 | 39.65843 | 2.24722 | 34060 ft | 447 kts | 309° |
| 2026-04-30 19:14 | 39.70123 | 2.18863 | 34056 ft | 447 kts | 309° |
| 2026-04-30 19:14 | 39.74399 | 2.12998 | 34064 ft | 447 kts | 309° |
| 2026-04-30 19:15 | 39.78677 | 2.07120 | 34070 ft | 447 kts | 309° |
| 2026-04-30 19:15 | 39.85086 | 1.98292 | 34068 ft | 448 kts | 309° |
| 2026-04-30 19:16 | 39.89364 | 1.92387 | 34067 ft | 448 kts | 309° |
| 2026-04-30 19:17 | 39.95785 | 1.83499 | 34071 ft | 450 kts | 309° |
| 2026-04-30 19:17 | 40.02947 | 1.75628 | 34089 ft | 462 kts | 333° |
| 2026-04-30 19:18 | 40.11931 | 1.70868 | 34079 ft | 465 kts | 334° |
| 2026-04-30 19:19 | 40.17950 | 1.67766 | 34076 ft | 465 kts | 334° |
| 2026-04-30 19:19 | 40.26935 | 1.63141 | 34088 ft | 464 kts | 334° |
| 2026-04-30 19:20 | 40.32927 | 1.60049 | 34081 ft | 462 kts | 334° |
| 2026-04-30 19:21 | 40.41907 | 1.55405 | 34088 ft | 463 kts | 334° |
| 2026-04-30 19:22 | 40.53880 | 1.49191 | 34093 ft | 463 kts | 334° |
| 2026-04-30 19:23 | 40.71846 | 1.39823 | 34100 ft | 463 kts | 334° |
| 2026-04-30 19:24 | 40.80823 | 1.35121 | 34103 ft | 463 kts | 334° |
| 2026-04-30 19:25 | 40.95772 | 1.27262 | 34102 ft | 461 kts | 334° |
| 2026-04-30 19:26 | 41.07684 | 1.20972 | 34102 ft | 461 kts | 334° |
| 2026-04-30 19:27 | 41.16819 | 1.17006 | 34092 ft | 467 kts | 352° |
| 2026-04-30 19:28 | 41.26577 | 1.15910 | 34108 ft | 470 kts | 352° |
| 2026-04-30 19:29 | 41.39544 | 1.14541 | 34115 ft | 468 kts | 352° |
| 2026-04-30 19:30 | 41.52556 | 1.13171 | 34119 ft | 469 kts | 352° |
| 2026-04-30 19:31 | 41.65565 | 1.11795 | 34110 ft | 468 kts | 352° |
| 2026-04-30 19:31 | 41.75312 | 1.10761 | 34101 ft | 468 kts | 352° |
| 2026-04-30 19:32 | 41.81802 | 1.10070 | 34093 ft | 467 kts | 351° |
| 2026-04-30 19:32 | 41.88273 | 1.09380 | 34089 ft | 467 kts | 351° |
| 2026-04-30 19:33 | 41.94746 | 1.08688 | 34084 ft | 467 kts | 351° |
| 2026-04-30 19:33 | 42.01216 | 1.07995 | 34093 ft | 466 kts | 351° |
| 2026-04-30 19:34 | 42.07664 | 1.07303 | 34099 ft | 465 kts | 351° |
| 2026-04-30 19:35 | 42.17341 | 1.06264 | 34120 ft | 465 kts | 351° |
| 2026-04-30 19:35 | 42.23779 | 1.05570 | 34147 ft | 462 kts | 351° |
| 2026-04-30 19:36 | 42.30194 | 1.04879 | 34149 ft | 462 kts | 351° |
| 2026-04-30 19:36 | 42.39805 | 1.03840 | 34150 ft | 462 kts | 351° |
| 2026-04-30 19:37 | 42.46156 | 1.03151 | 34068 ft | 458 kts | 350° |
| 2026-04-30 19:37 | 42.49364 | 1.02802 | 33144 ft | 458 kts | 350° |
| 2026-04-30 19:37 | 42.52510 | 1.02459 | 32244 ft | 461 kts | 351° |
| 2026-04-30 19:38 | 42.55707 | 1.02109 | 31435 ft | 460 kts | 351° |
| 2026-04-30 19:38 | 42.58892 | 1.01762 | 30702 ft | 459 kts | 351° |
| 2026-04-30 19:38 | 42.62082 | 1.01413 | 29729 ft | 461 kts | 351° |
| 2026-04-30 19:38 | 42.65294 | 1.01063 | 28666 ft | 465 kts | 351° |
| 2026-04-30 19:39 | 42.68513 | 1.00710 | 27711 ft | 465 kts | 351° |
| 2026-04-30 19:39 | 42.71750 | 1.00355 | 26766 ft | 466 kts | 352° |
| 2026-04-30 19:39 | 42.74971 | 1.00001 | 26032 ft | 461 kts | 352° |
| 2026-04-30 19:39 | 42.78181 | 0.99699 | 25189 ft | 465 kts | 353° |
| 2026-04-30 19:40 | 42.81408 | 0.99454 | 24434 ft | 463 kts | 354° |
| 2026-04-30 19:40 | 42.84613 | 0.99201 | 23728 ft | 461 kts | 354° |
| 2026-04-30 19:40 | 42.87810 | 0.98944 | 22823 ft | 459 kts | 354° |
| 2026-04-30 19:40 | 42.90983 | 0.98689 | 22090 ft | 454 kts | 354° |
| 2026-04-30 19:41 | 42.94120 | 0.98436 | 21381 ft | 449 kts | 354° |
| 2026-04-30 19:41 | 42.97233 | 0.98298 | 20626 ft | 448 kts | 1° |
| 2026-04-30 19:41 | 43.00302 | 0.99093 | 19819 ft | 452 kts | 17° |
| 2026-04-30 19:41 | 43.03128 | 1.00950 | 19181 ft | 450 kts | 29° |
| 2026-04-30 19:42 | 43.05804 | 1.03141 | 18475 ft | 447 kts | 30° |
| 2026-04-30 19:42 | 43.08433 | 1.05362 | 18034 ft | 437 kts | 30° |
| 2026-04-30 19:42 | 43.10978 | 1.07547 | 17671 ft | 426 kts | 31° |
| 2026-04-30 19:42 | 43.13441 | 1.09684 | 17421 ft | 414 kts | 31° |
| 2026-04-30 19:43 | 43.15832 | 1.11768 | 17191 ft | 402 kts | 31° |
| 2026-04-30 19:43 | 43.18152 | 1.13795 | 16999 ft | 390 kts | 31° |
| 2026-04-30 19:43 | 43.20373 | 1.15738 | 16843 ft | 367 kts | 31° |
| 2026-04-30 19:44 | 43.24445 | 1.19305 | 16518 ft | 328 kts | 31° |
| 2026-04-30 19:44 | 43.26341 | 1.20968 | 16363 ft | 320 kts | 31° |
| 2026-04-30 19:44 | 43.28200 | 1.22585 | 16090 ft | 317 kts | 28° |
| 2026-04-30 19:44 | 43.30289 | 1.23592 | 15489 ft | 321 kts | 7° |
| 2026-04-30 19:45 | 43.32502 | 1.24052 | 15076 ft | 322 kts | 7° |
| 2026-04-30 19:45 | 43.34720 | 1.24515 | 14632 ft | 324 kts | 7° |
| 2026-04-30 19:45 | 43.36964 | 1.24932 | 14139 ft | 327 kts | 1° |
| 2026-04-30 19:45 | 43.39199 | 1.24498 | 13555 ft | 327 kts | 337° |
| 2026-04-30 19:46 | 43.41205 | 1.23129 | 13064 ft | 317 kts | 330° |
| 2026-04-30 19:46 | 43.43129 | 1.21751 | 12690 ft | 309 kts | 330° |
| 2026-04-30 19:46 | 43.45030 | 1.20378 | 12278 ft | 309 kts | 330° |
| 2026-04-30 19:46 | 43.46938 | 1.18990 | 11835 ft | 310 kts | 330° |
| 2026-04-30 19:47 | 43.48821 | 1.17614 | 11385 ft | 312 kts | 330° |
| 2026-04-30 19:47 | 43.50115 | 1.16667 | 11073 ft | 309 kts | 330° |
| 2026-04-30 19:47 | 43.52584 | 1.14857 | 10492 ft | 298 kts | 330° |
| 2026-04-30 19:47 | 43.54390 | 1.13532 | 10079 ft | 290 kts | 330° |
| 2026-04-30 19:48 | 43.56148 | 1.12241 | 9614 ft | 284 kts | 330° |
| 2026-04-30 19:48 | 43.57871 | 1.10975 | 9199 ft | 277 kts | 330° |
| 2026-04-30 19:48 | 43.59543 | 1.09745 | 8807 ft | 269 kts | 331° |
| 2026-04-30 19:48 | 43.61166 | 1.08552 | 8490 ft | 259 kts | 330° |
| 2026-04-30 19:49 | 43.62748 | 1.07430 | 8122 ft | 253 kts | 337° |
| 2026-04-30 19:49 | 43.66077 | 1.07911 | 7254 ft | 247 kts | 30° |
| 2026-04-30 19:49 | 43.67544 | 1.09087 | 6897 ft | 241 kts | 30° |
| 2026-04-30 19:50 | 43.68970 | 1.10238 | 6555 ft | 234 kts | 30° |
| 2026-04-30 19:50 | 43.69892 | 1.10988 | 6326 ft | 230 kts | 31° |
| 2026-04-30 19:50 | 43.71693 | 1.12466 | 5870 ft | 221 kts | 31° |
| 2026-04-30 19:50 | 43.72563 | 1.13182 | 5653 ft | 217 kts | 32° |
| 2026-04-30 19:51 | 43.73846 | 1.14243 | 5322 ft | 212 kts | 32° |
| 2026-04-30 19:51 | 43.75099 | 1.15280 | 5014 ft | 208 kts | 33° |
| 2026-04-30 19:51 | 43.76319 | 1.16295 | 4709 ft | 201 kts | 33° |
| 2026-04-30 19:51 | 43.77352 | 1.17492 | 4322 ft | 190 kts | 61° |
| 2026-04-30 19:52 | 43.77675 | 1.19156 | 3900 ft | 174 kts | 97° |
| 2026-04-30 19:52 | 43.77264 | 1.20624 | 3598 ft | 157 kts | 130° |
| 2026-04-30 19:52 | 43.76540 | 1.21654 | 3437 ft | 144 kts | 136° |
| 2026-04-30 19:52 | 43.75811 | 1.22564 | 3334 ft | 139 kts | 138° |
| 2026-04-30 19:53 | 43.75071 | 1.23416 | 3151 ft | 138 kts | 140° |
| 2026-04-30 19:53 | 43.74322 | 1.24236 | 2961 ft | 137 kts | 140° |
| 2026-04-30 19:53 | 43.73572 | 1.25037 | 2779 ft | 135 kts | 141° |
| 2026-04-30 19:53 | 43.72824 | 1.25827 | 2585 ft | 136 kts | 140° |
| 2026-04-30 19:54 | 43.72073 | 1.26615 | 2415 ft | 135 kts | 141° |
| 2026-04-30 19:54 | 43.71326 | 1.27396 | 2233 ft | 135 kts | 141° |
| 2026-04-30 19:54 | 43.70577 | 1.28178 | 2058 ft | 135 kts | 141° |
| 2026-04-30 19:54 | 43.69827 | 1.28959 | 1872 ft | 135 kts | 141° |
| 2026-04-30 19:55 | 43.69072 | 1.29745 | 1695 ft | 137 kts | 141° |
| 2026-04-30 19:55 | 43.68310 | 1.30545 | 1490 ft | 138 kts | 141° |
| 2026-04-30 19:55 | 43.67542 | 1.31350 | 1289 ft | 139 kts | 141° |
| 2026-04-30 19:55 | 43.66763 | 1.32150 | 1096 ft | 139 kts | 140° |
| 2026-04-30 19:56 | 43.65992 | 1.32956 | 933 ft | 139 kts | 143° |
| 2026-04-30 19:56 | 43.65217 | 1.33752 | 746 ft | 138 kts | 142° |
| 2026-04-30 19:56 | 43.64454 | 1.34548 | 569 ft | 137 kts | 145° |
| 2026-04-30 19:56 | 43.63737 | 1.35292 | 490 ft | 115 kts | 143° |
| 2026-04-30 19:57 | 43.63240 | 1.35813 | 494 ft | 66 kts | 143° |
| 2026-04-30 19:57 | 43.62957 | 1.36118 | 496 ft | 48 kts | 143° |
| 2026-04-30 19:57 | 43.62692 | 1.36388 | 496 ft | 35 kts | 143° |
| 2026-04-30 19:57 | 43.62575 | 1.36407 | 495 ft | 16 kts | 226° |
| 2026-04-30 19:58 | 43.62547 | 1.36358 | 485 ft | 2 kts | 233° |
| 2026-04-30 19:58 | 43.62535 | 1.36335 | 490 ft | 4 kts | 233° |
| 2026-04-30 19:58 | 43.62535 | 1.36334 | 490 ft | 0 kts | 233° |
| 2026-04-30 19:59 | 43.62534 | 1.36333 | 490 ft | 0 kts | 234° |
| 2026-04-30 19:59 | 43.62532 | 1.36329 | 489 ft | 2 kts | 232° |
| 2026-04-30 20:00 | 43.62516 | 1.36304 | 496 ft | 5 kts | 223° |
| 2026-04-30 20:00 | 43.62470 | 1.36304 | 489 ft | 10 kts | 153° |
| 2026-04-30 20:00 | 43.62385 | 1.36390 | 489 ft | 20 kts | 143° |
| 2026-04-30 20:00 | 43.62261 | 1.36516 | 490 ft | 19 kts | 143° |
| 2026-04-30 20:01 | 43.62039 | 1.36748 | 489 ft | 18 kts | 144° |
| 2026-04-30 20:01 | 43.61943 | 1.36853 | 487 ft | 12 kts | 139° |
| 2026-04-30 20:01 | 43.61924 | 1.36877 | 489 ft | 4 kts | 120° |
| 2026-04-30 20:02 | 43.61877 | 1.36939 | 491 ft | 7 kts | 153° |
| 2026-04-30 20:02 | 43.61830 | 1.36979 | 491 ft | 9 kts | 130° |
| 2026-04-30 20:03 | 43.61844 | 1.37089 | 493 ft | 0 kts | 53° |
| 2026-04-30 20:03 | 43.61846 | 1.37093 | 494 ft | 2 kts | 53° |
| 2026-04-30 20:04 | 43.61862 | 1.37122 | 492 ft | 6 kts | 53° |
| 2026-04-30 20:04 | 43.61899 | 1.37188 | 493 ft | 11 kts | 53° |
| 2026-04-30 20:04 | 43.61957 | 1.37294 | 496 ft | 17 kts | 53° |
| 2026-04-30 20:05 | 43.62135 | 1.37625 | 496 ft | 17 kts | 53° |
| 2026-04-30 20:05 | 43.62204 | 1.37664 | 493 ft | 9 kts | 332° |
| 2026-04-30 20:05 | 43.62365 | 1.37500 | 496 ft | 19 kts | 323° |
| 2026-04-30 20:06 | 43.62488 | 1.37374 | 492 ft | 24 kts | 323° |
| 2026-04-30 20:06 | 43.62638 | 1.37220 | 493 ft | 29 kts | 323° |
| 2026-04-30 20:06 | 43.62758 | 1.37088 | 496 ft | 21 kts | 317° |
| 2026-04-30 20:06 | 43.62841 | 1.37003 | 489 ft | 16 kts | 319° |
| 2026-04-30 20:07 | 43.62927 | 1.36946 | 492 ft | 13 kts | 10° |
| 2026-04-30 20:07 | 43.62994 | 1.37029 | 491 ft | 14 kts | 41° |
| 2026-04-30 20:07 | 43.63121 | 1.37140 | 487 ft | 2 kts | 33° |
| 2026-04-30 20:08 | 43.63125 | 1.37143 | 487 ft | 0 kts | 33° |